sensor_id;sensor_type;location;lat;lon;timestamp;P1;durP1;ratioP1;P2;durP2;ratioP2
1585;SDS011;786;48.718;9.514;2023-03-01T00:02:20;21.02;;;15.45;;
1585;SDS011;786;48.718;9.514;2023-03-01T00:04:46;20.90;;;13.32;;
1585;SDS011;786;48.718;9.514;2023-03-01T00:07:12;20.85;;;14.45;;
1585;SDS011;786;48.718;9.514;2023-03-01T00:09:39;20.40;;;14.20;;
1585;SDS011;786;48.718;9.514;2023-03-01T00:12:06;21.63;;;14.98;;
1585;SDS011;786;48.718;9.514;2023-03-01T00:14:32;25.63;;;16.48;;
1585;SDS011;786;48.718;9.514;2023-03-01T00:16:59;21.55;;;14.00;;
1585;SDS011;786;48.718;9.514;2023-03-01T00:19:26;24.40;;;15.50;;
1585;SDS011;786;48.718;9.514;2023-03-01T00:21:53;21.23;;;15.77;;
1585;SDS011;786;48.718;9.514;2023-03-01T00:24:19;20.90;;;13.45;;
1585;SDS011;786;48.718;9.514;2023-03-01T00:26:45;20.35;;;15.00;;
1585;SDS011;786;48.718;9.514;2023-03-01T00:29:12;23.10;;;13.77;;
1585;SDS011;786;48.718;9.514;2023-03-01T00:31:38;24.67;;;16.00;;
1585;SDS011;786;48.718;9.514;2023-03-01T00:34:05;21.65;;;14.25;;
1585;SDS011;786;48.718;9.514;2023-03-01T00:36:34;20.77;;;13.23;;
1585;SDS011;786;48.718;9.514;2023-03-01T00:39:02;23.63;;;15.50;;
1585;SDS011;786;48.718;9.514;2023-03-01T00:41:29;23.95;;;16.05;;
1585;SDS011;786;48.718;9.514;2023-03-01T00:43:56;25.30;;;13.40;;
1585;SDS011;786;48.718;9.514;2023-03-01T00:46:23;22.15;;;13.00;;
1585;SDS011;786;48.718;9.514;2023-03-01T00:48:50;21.17;;;13.55;;
1585;SDS011;786;48.718;9.514;2023-03-01T00:51:17;22.50;;;14.18;;
1585;SDS011;786;48.718;9.514;2023-03-01T00:53:46;24.65;;;13.82;;
1585;SDS011;786;48.718;9.514;2023-03-01T00:56:14;25.27;;;15.57;;
1585;SDS011;786;48.718;9.514;2023-03-01T00:58:41;22.60;;;15.00;;
1585;SDS011;786;48.718;9.514;2023-03-01T01:01:08;23.58;;;14.88;;
1585;SDS011;786;48.718;9.514;2023-03-01T01:03:42;25.30;;;15.05;;
1585;SDS011;786;48.718;9.514;2023-03-01T01:06:13;20.73;;;13.38;;
1585;SDS011;786;48.718;9.514;2023-03-01T01:08:40;21.30;;;15.02;;
1585;SDS011;786;48.718;9.514;2023-03-01T01:11:09;23.85;;;14.32;;
1585;SDS011;786;48.718;9.514;2023-03-01T01:13:37;19.95;;;13.30;;
1585;SDS011;786;48.718;9.514;2023-03-01T01:16:04;25.17;;;15.20;;
1585;SDS011;786;48.718;9.514;2023-03-01T01:18:31;23.13;;;13.52;;
1585;SDS011;786;48.718;9.514;2023-03-01T01:20:57;26.00;;;15.05;;
1585;SDS011;786;48.718;9.514;2023-03-01T01:23:24;25.90;;;15.52;;
1585;SDS011;786;48.718;9.514;2023-03-01T01:25:50;25.35;;;16.35;;
1585;SDS011;786;48.718;9.514;2023-03-01T01:28:18;22.42;;;15.07;;
1585;SDS011;786;48.718;9.514;2023-03-01T01:30:44;24.17;;;15.40;;
1585;SDS011;786;48.718;9.514;2023-03-01T01:33:10;22.88;;;15.40;;
1585;SDS011;786;48.718;9.514;2023-03-01T01:35:37;22.60;;;13.77;;
1585;SDS011;786;48.718;9.514;2023-03-01T01:38:03;21.45;;;16.27;;
1585;SDS011;786;48.718;9.514;2023-03-01T01:40:29;23.90;;;15.05;;
1585;SDS011;786;48.718;9.514;2023-03-01T01:42:56;20.60;;;15.05;;
1585;SDS011;786;48.718;9.514;2023-03-01T01:45:31;21.77;;;14.02;;
1585;SDS011;786;48.718;9.514;2023-03-01T01:47:59;24.77;;;17.77;;
1585;SDS011;786;48.718;9.514;2023-03-01T01:50:28;22.90;;;14.02;;
1585;SDS011;786;48.718;9.514;2023-03-01T01:53:04;20.48;;;14.15;;
1585;SDS011;786;48.718;9.514;2023-03-01T01:55:31;21.90;;;14.65;;
1585;SDS011;786;48.718;9.514;2023-03-01T01:57:58;23.88;;;15.70;;
1585;SDS011;786;48.718;9.514;2023-03-01T02:00:28;19.27;;;14.07;;
1585;SDS011;786;48.718;9.514;2023-03-01T02:02:57;22.13;;;14.63;;
1585;SDS011;786;48.718;9.514;2023-03-01T02:05:26;19.30;;;13.73;;
1585;SDS011;786;48.718;9.514;2023-03-01T02:07:55;24.65;;;14.70;;
1585;SDS011;786;48.718;9.514;2023-03-01T02:10:22;21.63;;;13.63;;
1585;SDS011;786;48.718;9.514;2023-03-01T02:12:49;18.33;;;13.18;;
1585;SDS011;786;48.718;9.514;2023-03-01T02:15:17;18.80;;;14.15;;
1585;SDS011;786;48.718;9.514;2023-03-01T02:17:43;18.42;;;12.85;;
1585;SDS011;786;48.718;9.514;2023-03-01T02:20:13;17.55;;;12.60;;
1585;SDS011;786;48.718;9.514;2023-03-01T02:22:45;23.75;;;13.75;;
1585;SDS011;786;48.718;9.514;2023-03-01T02:25:21;18.55;;;11.88;;
1585;SDS011;786;48.718;9.514;2023-03-01T02:27:54;21.55;;;15.75;;
1585;SDS011;786;48.718;9.514;2023-03-01T02:30:27;20.02;;;13.57;;
1585;SDS011;786;48.718;9.514;2023-03-01T02:32:53;20.73;;;13.70;;
1585;SDS011;786;48.718;9.514;2023-03-01T02:35:19;19.77;;;14.45;;
1585;SDS011;786;48.718;9.514;2023-03-01T02:37:46;17.85;;;11.48;;
1585;SDS011;786;48.718;9.514;2023-03-01T02:40:14;21.13;;;13.05;;
1585;SDS011;786;48.718;9.514;2023-03-01T02:42:45;17.90;;;13.50;;
1585;SDS011;786;48.718;9.514;2023-03-01T02:45:14;18.73;;;13.60;;
1585;SDS011;786;48.718;9.514;2023-03-01T02:47:41;19.08;;;14.57;;
1585;SDS011;786;48.718;9.514;2023-03-01T02:50:14;21.63;;;13.02;;
1585;SDS011;786;48.718;9.514;2023-03-01T02:52:45;19.23;;;13.27;;
1585;SDS011;786;48.718;9.514;2023-03-01T02:55:13;16.50;;;11.90;;
1585;SDS011;786;48.718;9.514;2023-03-01T02:57:42;19.77;;;12.93;;
1585;SDS011;786;48.718;9.514;2023-03-01T03:00:10;22.23;;;15.50;;
1585;SDS011;786;48.718;9.514;2023-03-01T03:02:45;20.83;;;14.18;;
1585;SDS011;786;48.718;9.514;2023-03-01T03:05:13;21.52;;;14.55;;
1585;SDS011;786;48.718;9.514;2023-03-01T03:07:42;23.02;;;14.20;;
1585;SDS011;786;48.718;9.514;2023-03-01T03:10:11;23.05;;;15.50;;
1585;SDS011;786;48.718;9.514;2023-03-01T03:12:39;19.52;;;14.55;;
1585;SDS011;786;48.718;9.514;2023-03-01T03:15:06;19.60;;;14.25;;
1585;SDS011;786;48.718;9.514;2023-03-01T03:17:34;18.00;;;11.95;;
1585;SDS011;786;48.718;9.514;2023-03-01T03:20:02;20.10;;;13.45;;
1585;SDS011;786;48.718;9.514;2023-03-01T03:22:29;21.95;;;14.00;;
1585;SDS011;786;48.718;9.514;2023-03-01T03:24:56;19.52;;;13.13;;
1585;SDS011;786;48.718;9.514;2023-03-01T03:27:22;22.42;;;15.77;;
1585;SDS011;786;48.718;9.514;2023-03-01T03:29:48;39.75;;;21.10;;
1585;SDS011;786;48.718;9.514;2023-03-01T03:32:15;25.13;;;16.15;;
1585;SDS011;786;48.718;9.514;2023-03-01T03:34:41;17.58;;;10.27;;
1585;SDS011;786;48.718;9.514;2023-03-01T03:37:09;16.90;;;11.07;;
1585;SDS011;786;48.718;9.514;2023-03-01T03:39:56;23.33;;;16.67;;
1585;SDS011;786;48.718;9.514;2023-03-01T03:42:23;22.50;;;15.18;;
1585;SDS011;786;48.718;9.514;2023-03-01T03:44:49;21.05;;;14.60;;
1585;SDS011;786;48.718;9.514;2023-03-01T03:47:15;20.88;;;15.02;;
1585;SDS011;786;48.718;9.514;2023-03-01T03:49:42;23.02;;;14.90;;
1585;SDS011;786;48.718;9.514;2023-03-01T03:52:09;19.65;;;14.18;;
1585;SDS011;786;48.718;9.514;2023-03-01T03:54:38;21.73;;;13.25;;
1585;SDS011;786;48.718;9.514;2023-03-01T03:57:05;22.75;;;15.70;;
1585;SDS011;786;48.718;9.514;2023-03-01T03:59:31;21.50;;;14.15;;
1585;SDS011;786;48.718;9.514;2023-03-01T04:01:57;24.25;;;15.70;;
1585;SDS011;786;48.718;9.514;2023-03-01T04:04:24;22.88;;;14.63;;
1585;SDS011;786;48.718;9.514;2023-03-01T04:06:50;18.20;;;12.40;;
1585;SDS011;786;48.718;9.514;2023-03-01T04:09:18;23.27;;;14.15;;
1585;SDS011;786;48.718;9.514;2023-03-01T04:11:44;21.63;;;14.38;;
1585;SDS011;786;48.718;9.514;2023-03-01T04:14:11;22.92;;;15.43;;
1585;SDS011;786;48.718;9.514;2023-03-01T04:16:37;23.33;;;13.93;;
1585;SDS011;786;48.718;9.514;2023-03-01T04:19:03;18.35;;;14.27;;
1585;SDS011;786;48.718;9.514;2023-03-01T04:21:31;21.10;;;13.38;;
1585;SDS011;786;48.718;9.514;2023-03-01T04:23:57;19.92;;;13.48;;
1585;SDS011;786;48.718;9.514;2023-03-01T04:26:25;22.50;;;13.80;;
1585;SDS011;786;48.718;9.514;2023-03-01T04:28:52;25.00;;;15.23;;
1585;SDS011;786;48.718;9.514;2023-03-01T04:31:20;21.45;;;16.05;;
1585;SDS011;786;48.718;9.514;2023-03-01T04:33:48;24.40;;;14.93;;
1585;SDS011;786;48.718;9.514;2023-03-01T04:36:17;22.42;;;11.95;;
1585;SDS011;786;48.718;9.514;2023-03-01T04:38:44;18.70;;;12.05;;
1585;SDS011;786;48.718;9.514;2023-03-01T04:41:12;19.98;;;13.20;;
1585;SDS011;786;48.718;9.514;2023-03-01T04:43:40;19.30;;;14.52;;
1585;SDS011;786;48.718;9.514;2023-03-01T04:46:07;21.48;;;13.52;;
1585;SDS011;786;48.718;9.514;2023-03-01T04:48:35;20.35;;;12.90;;
1585;SDS011;786;48.718;9.514;2023-03-01T04:51:03;22.98;;;15.65;;
1585;SDS011;786;48.718;9.514;2023-03-01T04:53:30;21.15;;;14.05;;
1585;SDS011;786;48.718;9.514;2023-03-01T04:55:57;22.25;;;14.55;;
1585;SDS011;786;48.718;9.514;2023-03-01T04:58:24;20.08;;;15.07;;
1585;SDS011;786;48.718;9.514;2023-03-01T05:00:53;22.90;;;16.05;;
1585;SDS011;786;48.718;9.514;2023-03-01T05:03:20;20.30;;;12.82;;
1585;SDS011;786;48.718;9.514;2023-03-01T05:05:49;20.10;;;13.80;;
1585;SDS011;786;48.718;9.514;2023-03-01T05:08:16;19.13;;;13.68;;
1585;SDS011;786;48.718;9.514;2023-03-01T05:10:43;22.52;;;13.55;;
1585;SDS011;786;48.718;9.514;2023-03-01T05:13:12;20.67;;;14.02;;
1585;SDS011;786;48.718;9.514;2023-03-01T05:15:40;18.90;;;14.52;;
1585;SDS011;786;48.718;9.514;2023-03-01T05:18:08;20.83;;;14.23;;
1585;SDS011;786;48.718;9.514;2023-03-01T05:20:36;24.27;;;16.55;;
1585;SDS011;786;48.718;9.514;2023-03-01T05:23:03;21.13;;;14.18;;
1585;SDS011;786;48.718;9.514;2023-03-01T05:25:31;23.23;;;15.90;;
1585;SDS011;786;48.718;9.514;2023-03-01T05:27:59;21.30;;;14.32;;
1585;SDS011;786;48.718;9.514;2023-03-01T05:30:29;24.55;;;14.02;;
1585;SDS011;786;48.718;9.514;2023-03-01T05:32:56;21.92;;;13.02;;
1585;SDS011;786;48.718;9.514;2023-03-01T05:35:23;25.58;;;16.70;;
1585;SDS011;786;48.718;9.514;2023-03-01T05:37:50;21.80;;;15.48;;
1585;SDS011;786;48.718;9.514;2023-03-01T05:40:18;20.85;;;14.10;;
1585;SDS011;786;48.718;9.514;2023-03-01T05:42:46;26.10;;;19.63;;
1585;SDS011;786;48.718;9.514;2023-03-01T05:45:13;29.48;;;22.08;;
1585;SDS011;786;48.718;9.514;2023-03-01T05:47:41;24.05;;;15.77;;
1585;SDS011;786;48.718;9.514;2023-03-01T05:50:10;24.75;;;16.77;;
1585;SDS011;786;48.718;9.514;2023-03-01T05:52:38;21.92;;;17.23;;
1585;SDS011;786;48.718;9.514;2023-03-01T05:55:05;22.25;;;14.57;;
1585;SDS011;786;48.718;9.514;2023-03-01T05:57:32;23.92;;;16.58;;
1585;SDS011;786;48.718;9.514;2023-03-01T05:59:58;23.55;;;16.63;;
1585;SDS011;786;48.718;9.514;2023-03-01T06:02:25;24.17;;;17.90;;
1585;SDS011;786;48.718;9.514;2023-03-01T06:04:52;25.13;;;19.45;;
1585;SDS011;786;48.718;9.514;2023-03-01T06:07:18;25.30;;;20.00;;
1585;SDS011;786;48.718;9.514;2023-03-01T06:09:46;25.98;;;17.85;;
1585;SDS011;786;48.718;9.514;2023-03-01T06:12:12;24.92;;;18.42;;
1585;SDS011;786;48.718;9.514;2023-03-01T06:14:39;23.92;;;15.98;;
1585;SDS011;786;48.718;9.514;2023-03-01T06:17:08;20.58;;;15.38;;
1585;SDS011;786;48.718;9.514;2023-03-01T06:19:35;23.58;;;15.98;;
1585;SDS011;786;48.718;9.514;2023-03-01T06:22:01;25.27;;;16.13;;
1585;SDS011;786;48.718;9.514;2023-03-01T06:24:27;22.23;;;15.60;;
1585;SDS011;786;48.718;9.514;2023-03-01T06:26:55;23.30;;;15.65;;
1585;SDS011;786;48.718;9.514;2023-03-01T06:29:22;18.52;;;10.35;;
1585;SDS011;786;48.718;9.514;2023-03-01T06:31:48;25.30;;;15.45;;
1585;SDS011;786;48.718;9.514;2023-03-01T06:34:15;24.27;;;14.85;;
1585;SDS011;786;48.718;9.514;2023-03-01T06:36:41;22.60;;;13.00;;
1585;SDS011;786;48.718;9.514;2023-03-01T06:39:08;23.00;;;14.57;;
1585;SDS011;786;48.718;9.514;2023-03-01T06:41:34;19.95;;;12.85;;
1585;SDS011;786;48.718;9.514;2023-03-01T06:44:02;21.00;;;14.00;;
1585;SDS011;786;48.718;9.514;2023-03-01T06:46:28;21.10;;;12.57;;
1585;SDS011;786;48.718;9.514;2023-03-01T06:48:55;23.15;;;15.25;;
1585;SDS011;786;48.718;9.514;2023-03-01T06:51:21;21.73;;;15.75;;
1585;SDS011;786;48.718;9.514;2023-03-01T06:53:48;23.38;;;14.40;;
1585;SDS011;786;48.718;9.514;2023-03-01T06:56:14;23.05;;;14.75;;
1585;SDS011;786;48.718;9.514;2023-03-01T06:58:41;21.38;;;14.70;;
1585;SDS011;786;48.718;9.514;2023-03-01T07:01:08;19.02;;;14.00;;
1585;SDS011;786;48.718;9.514;2023-03-01T07:03:35;21.98;;;13.63;;
1585;SDS011;786;48.718;9.514;2023-03-01T07:06:01;17.80;;;13.32;;
1585;SDS011;786;48.718;9.514;2023-03-01T07:08:28;20.15;;;15.10;;
1585;SDS011;786;48.718;9.514;2023-03-01T07:10:55;17.70;;;14.07;;
1585;SDS011;786;48.718;9.514;2023-03-01T07:13:21;20.13;;;14.23;;
1585;SDS011;786;48.718;9.514;2023-03-01T07:15:48;19.67;;;14.95;;
1585;SDS011;786;48.718;9.514;2023-03-01T07:18:15;18.60;;;13.43;;
1585;SDS011;786;48.718;9.514;2023-03-01T07:20:42;19.33;;;13.68;;
1585;SDS011;786;48.718;9.514;2023-03-01T07:23:08;21.42;;;13.98;;
1585;SDS011;786;48.718;9.514;2023-03-01T07:25:34;19.38;;;14.10;;
1585;SDS011;786;48.718;9.514;2023-03-01T07:28:01;16.77;;;13.43;;
1585;SDS011;786;48.718;9.514;2023-03-01T07:30:27;17.98;;;14.30;;
1585;SDS011;786;48.718;9.514;2023-03-01T07:32:54;18.10;;;14.55;;
1585;SDS011;786;48.718;9.514;2023-03-01T07:35:22;17.83;;;14.43;;
1585;SDS011;786;48.718;9.514;2023-03-01T07:37:48;18.70;;;14.02;;
1585;SDS011;786;48.718;9.514;2023-03-01T07:40:15;16.48;;;14.32;;
1585;SDS011;786;48.718;9.514;2023-03-01T07:42:41;17.80;;;14.50;;
1585;SDS011;786;48.718;9.514;2023-03-01T07:45:08;18.45;;;14.40;;
1585;SDS011;786;48.718;9.514;2023-03-01T07:47:35;19.05;;;13.93;;
1585;SDS011;786;48.718;9.514;2023-03-01T07:50:02;18.38;;;14.95;;
1585;SDS011;786;48.718;9.514;2023-03-01T07:52:30;18.45;;;13.75;;
1585;SDS011;786;48.718;9.514;2023-03-01T07:54:56;16.05;;;12.48;;
1585;SDS011;786;48.718;9.514;2023-03-01T07:57:23;20.10;;;16.10;;
1585;SDS011;786;48.718;9.514;2023-03-01T07:59:49;18.02;;;16.13;;
1585;SDS011;786;48.718;9.514;2023-03-01T08:02:16;19.83;;;14.07;;
1585;SDS011;786;48.718;9.514;2023-03-01T08:04:42;19.80;;;14.30;;
1585;SDS011;786;48.718;9.514;2023-03-01T08:07:08;18.40;;;14.85;;
1585;SDS011;786;48.718;9.514;2023-03-01T08:09:36;17.30;;;13.95;;
1585;SDS011;786;48.718;9.514;2023-03-01T08:12:03;16.85;;;14.07;;
1585;SDS011;786;48.718;9.514;2023-03-01T08:14:30;17.08;;;14.45;;
1585;SDS011;786;48.718;9.514;2023-03-01T08:16:57;16.63;;;13.02;;
1585;SDS011;786;48.718;9.514;2023-03-01T08:19:23;21.55;;;15.07;;
1585;SDS011;786;48.718;9.514;2023-03-01T08:21:50;17.95;;;15.15;;
1585;SDS011;786;48.718;9.514;2023-03-01T08:24:16;17.80;;;15.88;;
1585;SDS011;786;48.718;9.514;2023-03-01T08:26:44;17.30;;;14.10;;
1585;SDS011;786;48.718;9.514;2023-03-01T08:29:10;19.77;;;16.08;;
1585;SDS011;786;48.718;9.514;2023-03-01T08:31:37;17.27;;;15.35;;
1585;SDS011;786;48.718;9.514;2023-03-01T08:34:06;18.42;;;15.48;;
1585;SDS011;786;48.718;9.514;2023-03-01T08:36:35;16.73;;;14.95;;
1585;SDS011;786;48.718;9.514;2023-03-01T08:39:02;16.58;;;14.80;;
1585;SDS011;786;48.718;9.514;2023-03-01T08:41:30;16.88;;;14.75;;
1585;SDS011;786;48.718;9.514;2023-03-01T08:43:58;18.85;;;16.02;;
1585;SDS011;786;48.718;9.514;2023-03-01T08:46:24;18.17;;;15.98;;
1585;SDS011;786;48.718;9.514;2023-03-01T08:48:51;17.95;;;16.05;;
1585;SDS011;786;48.718;9.514;2023-03-01T08:51:18;18.83;;;16.88;;
1585;SDS011;786;48.718;9.514;2023-03-01T08:53:45;17.98;;;15.52;;
1585;SDS011;786;48.718;9.514;2023-03-01T08:56:12;18.58;;;16.10;;
1585;SDS011;786;48.718;9.514;2023-03-01T08:58:38;16.25;;;14.60;;
1585;SDS011;786;48.718;9.514;2023-03-01T09:01:10;19.00;;;15.88;;
1585;SDS011;786;48.718;9.514;2023-03-01T09:03:38;19.75;;;17.50;;
1585;SDS011;786;48.718;9.514;2023-03-01T09:06:05;17.77;;;15.65;;
1585;SDS011;786;48.718;9.514;2023-03-01T09:08:34;20.00;;;16.52;;
1585;SDS011;786;48.718;9.514;2023-03-01T09:11:01;18.48;;;15.65;;
1585;SDS011;786;48.718;9.514;2023-03-01T09:13:27;17.35;;;15.57;;
1585;SDS011;786;48.718;9.514;2023-03-01T09:15:56;18.17;;;16.20;;
1585;SDS011;786;48.718;9.514;2023-03-01T09:18:23;18.52;;;14.93;;
1585;SDS011;786;48.718;9.514;2023-03-01T09:20:50;18.17;;;16.38;;
1585;SDS011;786;48.718;9.514;2023-03-01T09:23:16;19.30;;;16.90;;
1585;SDS011;786;48.718;9.514;2023-03-01T09:25:42;18.85;;;16.83;;
1585;SDS011;786;48.718;9.514;2023-03-01T09:28:09;16.58;;;14.60;;
1585;SDS011;786;48.718;9.514;2023-03-01T09:30:35;16.88;;;15.02;;
1585;SDS011;786;48.718;9.514;2023-03-01T09:33:02;17.88;;;16.02;;
1585;SDS011;786;48.718;9.514;2023-03-01T09:35:30;19.38;;;16.02;;
1585;SDS011;786;48.718;9.514;2023-03-01T09:37:56;18.92;;;15.35;;
1585;SDS011;786;48.718;9.514;2023-03-01T09:40:23;17.25;;;15.55;;
1585;SDS011;786;48.718;9.514;2023-03-01T09:42:53;17.20;;;15.32;;
1585;SDS011;786;48.718;9.514;2023-03-01T09:45:25;19.70;;;17.58;;
1585;SDS011;786;48.718;9.514;2023-03-01T09:47:54;17.88;;;16.13;;
1585;SDS011;786;48.718;9.514;2023-03-01T09:50:21;19.25;;;17.23;;
1585;SDS011;786;48.718;9.514;2023-03-01T09:52:50;17.63;;;15.82;;
1585;SDS011;786;48.718;9.514;2023-03-01T09:55:26;17.60;;;15.80;;
1585;SDS011;786;48.718;9.514;2023-03-01T09:57:58;18.88;;;17.08;;
1585;SDS011;786;48.718;9.514;2023-03-01T10:00:32;18.45;;;16.58;;
1585;SDS011;786;48.718;9.514;2023-03-01T10:03:03;17.48;;;15.77;;
1585;SDS011;786;48.718;9.514;2023-03-01T10:05:38;17.60;;;15.80;;
1585;SDS011;786;48.718;9.514;2023-03-01T10:08:23;18.42;;;16.15;;
1585;SDS011;786;48.718;9.514;2023-03-01T10:10:55;19.55;;;17.60;;
1585;SDS011;786;48.718;9.514;2023-03-01T10:13:23;19.98;;;18.33;;
1585;SDS011;786;48.718;9.514;2023-03-01T10:15:53;18.10;;;16.17;;
1585;SDS011;786;48.718;9.514;2023-03-01T10:18:22;18.23;;;16.45;;
1585;SDS011;786;48.718;9.514;2023-03-01T10:20:52;18.05;;;16.25;;
1585;SDS011;786;48.718;9.514;2023-03-01T10:23:21;18.42;;;16.63;;
1585;SDS011;786;48.718;9.514;2023-03-01T10:25:52;18.98;;;17.13;;
1585;SDS011;786;48.718;9.514;2023-03-01T10:28:31;19.83;;;18.02;;
1585;SDS011;786;48.718;9.514;2023-03-01T10:31:04;20.58;;;18.77;;
1585;SDS011;786;48.718;9.514;2023-03-01T10:33:32;20.17;;;18.25;;
1585;SDS011;786;48.718;9.514;2023-03-01T10:35:59;18.60;;;16.80;;
1585;SDS011;786;48.718;9.514;2023-03-01T10:38:27;18.33;;;16.55;;
1585;SDS011;786;48.718;9.514;2023-03-01T10:43:24;17.17;;;15.38;;
1585;SDS011;786;48.718;9.514;2023-03-01T10:45:50;21.77;;;19.67;;
1585;SDS011;786;48.718;9.514;2023-03-01T10:48:18;19.65;;;17.85;;
1585;SDS011;786;48.718;9.514;2023-03-01T10:50:49;20.33;;;18.35;;
1585;SDS011;786;48.718;9.514;2023-03-01T10:53:19;20.05;;;18.15;;
1585;SDS011;786;48.718;9.514;2023-03-01T10:55:56;19.98;;;18.23;;
1585;SDS011;786;48.718;9.514;2023-03-01T10:58:24;19.40;;;17.50;;
1585;SDS011;786;48.718;9.514;2023-03-01T11:00:52;17.88;;;16.27;;
1585;SDS011;786;48.718;9.514;2023-03-01T11:03:21;17.65;;;15.73;;
1585;SDS011;786;48.718;9.514;2023-03-01T11:05:53;17.70;;;15.98;;
1585;SDS011;786;48.718;9.514;2023-03-01T11:08:31;18.75;;;15.88;;
1585;SDS011;786;48.718;9.514;2023-03-01T11:11:17;17.20;;;15.50;;
1585;SDS011;786;48.718;9.514;2023-03-01T11:13:56;17.70;;;15.82;;
1585;SDS011;786;48.718;9.514;2023-03-01T11:16:24;16.52;;;14.93;;
1585;SDS011;786;48.718;9.514;2023-03-01T11:21:33;17.38;;;15.63;;
1585;SDS011;786;48.718;9.514;2023-03-01T11:24:01;16.58;;;14.98;;
1585;SDS011;786;48.718;9.514;2023-03-01T11:26:29;17.10;;;15.43;;
1585;SDS011;786;48.718;9.514;2023-03-01T11:28:58;17.45;;;15.65;;
1585;SDS011;786;48.718;9.514;2023-03-01T11:31:28;17.90;;;16.10;;
1585;SDS011;786;48.718;9.514;2023-03-01T11:33:55;18.33;;;16.48;;
1585;SDS011;786;48.718;9.514;2023-03-01T11:36:26;19.55;;;17.48;;
1585;SDS011;786;48.718;9.514;2023-03-01T11:38:55;18.48;;;16.73;;
1585;SDS011;786;48.718;9.514;2023-03-01T11:41:23;16.65;;;15.05;;
1585;SDS011;786;48.718;9.514;2023-03-01T11:43:54;18.08;;;14.98;;
1585;SDS011;786;48.718;9.514;2023-03-01T11:49:30;17.27;;;15.65;;
1585;SDS011;786;48.718;9.514;2023-03-01T11:52:08;16.20;;;14.38;;
1585;SDS011;786;48.718;9.514;2023-03-01T11:54:45;18.33;;;16.42;;
1585;SDS011;786;48.718;9.514;2023-03-01T11:57:20;17.98;;;16.17;;
1585;SDS011;786;48.718;9.514;2023-03-01T12:00:13;18.13;;;16.35;;
1585;SDS011;786;48.718;9.514;2023-03-01T12:03:01;18.98;;;16.02;;
1585;SDS011;786;48.718;9.514;2023-03-01T12:05:49;17.58;;;15.77;;
1585;SDS011;786;48.718;9.514;2023-03-01T12:08:38;18.33;;;16.63;;
1585;SDS011;786;48.718;9.514;2023-03-01T12:11:12;18.40;;;16.67;;
1585;SDS011;786;48.718;9.514;2023-03-01T12:13:53;17.95;;;16.30;;
1585;SDS011;786;48.718;9.514;2023-03-01T12:16:32;18.85;;;17.08;;
1585;SDS011;786;48.718;9.514;2023-03-01T12:19:10;17.98;;;16.35;;
1585;SDS011;786;48.718;9.514;2023-03-01T12:21:49;16.50;;;14.85;;
1585;SDS011;786;48.718;9.514;2023-03-01T12:24:28;17.30;;;15.60;;
1585;SDS011;786;48.718;9.514;2023-03-01T12:27:06;18.30;;;16.67;;
1585;SDS011;786;48.718;9.514;2023-03-01T12:29:39;18.85;;;16.98;;
1585;SDS011;786;48.718;9.514;2023-03-01T12:32:27;18.65;;;16.15;;
1585;SDS011;786;48.718;9.514;2023-03-01T12:35:09;17.13;;;15.32;;
1585;SDS011;786;48.718;9.514;2023-03-01T12:37:42;16.90;;;15.20;;
1585;SDS011;786;48.718;9.514;2023-03-01T12:40:23;17.48;;;15.88;;
1585;SDS011;786;48.718;9.514;2023-03-01T12:42:59;15.88;;;14.27;;
1585;SDS011;786;48.718;9.514;2023-03-01T12:45:38;16.13;;;14.55;;
1585;SDS011;786;48.718;9.514;2023-03-01T12:48:16;17.02;;;15.32;;
1585;SDS011;786;48.718;9.514;2023-03-01T12:50:47;16.58;;;14.88;;
1585;SDS011;786;48.718;9.514;2023-03-01T12:53:20;17.52;;;15.70;;
1585;SDS011;786;48.718;9.514;2023-03-01T12:55:49;19.10;;;16.85;;
1585;SDS011;786;48.718;9.514;2023-03-01T13:01:26;19.60;;;16.20;;
1585;SDS011;786;48.718;9.514;2023-03-01T13:04:05;18.95;;;15.10;;
1585;SDS011;786;48.718;9.514;2023-03-01T13:06:38;19.30;;;15.23;;
1585;SDS011;786;48.718;9.514;2023-03-01T13:09:11;18.73;;;15.00;;
1585;SDS011;786;48.718;9.514;2023-03-01T13:11:41;21.25;;;15.32;;
1585;SDS011;786;48.718;9.514;2023-03-01T13:22:40;22.20;;;17.08;;
1585;SDS011;786;48.718;9.514;2023-03-01T13:25:14;23.92;;;17.58;;
1585;SDS011;786;48.718;9.514;2023-03-01T13:27:43;21.77;;;16.10;;
1585;SDS011;786;48.718;9.514;2023-03-01T13:36:06;21.00;;;13.48;;
1585;SDS011;786;48.718;9.514;2023-03-01T13:38:36;17.90;;;12.75;;
1585;SDS011;786;48.718;9.514;2023-03-01T13:41:04;18.48;;;10.77;;
1585;SDS011;786;48.718;9.514;2023-03-01T13:43:31;19.10;;;12.75;;
1585;SDS011;786;48.718;9.514;2023-03-01T13:45:58;20.40;;;12.98;;
1585;SDS011;786;48.718;9.514;2023-03-01T13:48:26;19.70;;;13.32;;
1585;SDS011;786;48.718;9.514;2023-03-01T13:50:54;21.27;;;13.73;;
1585;SDS011;786;48.718;9.514;2023-03-01T13:53:24;21.60;;;13.50;;
1585;SDS011;786;48.718;9.514;2023-03-01T13:55:52;19.10;;;12.48;;
1585;SDS011;786;48.718;9.514;2023-03-01T13:58:23;19.75;;;13.82;;
1585;SDS011;786;48.718;9.514;2023-03-01T14:00:55;20.58;;;14.35;;
1585;SDS011;786;48.718;9.514;2023-03-01T14:03:24;18.52;;;13.00;;
1585;SDS011;786;48.718;9.514;2023-03-01T14:05:57;21.00;;;14.35;;
1585;SDS011;786;48.718;9.514;2023-03-01T14:08:28;18.90;;;13.93;;
1585;SDS011;786;48.718;9.514;2023-03-01T14:11:00;20.73;;;14.30;;
1585;SDS011;786;48.718;9.514;2023-03-01T14:13:39;22.77;;;14.75;;
1585;SDS011;786;48.718;9.514;2023-03-01T14:16:17;23.30;;;13.90;;
1585;SDS011;786;48.718;9.514;2023-03-01T14:18:52;16.80;;;12.18;;
1585;SDS011;786;48.718;9.514;2023-03-01T14:21:23;18.75;;;11.73;;
1585;SDS011;786;48.718;9.514;2023-03-01T14:23:52;20.08;;;12.27;;
1585;SDS011;786;48.718;9.514;2023-03-01T14:26:20;25.48;;;18.02;;
1585;SDS011;786;48.718;9.514;2023-03-01T14:28:47;25.60;;;17.80;;
1585;SDS011;786;48.718;9.514;2023-03-01T14:31:31;23.38;;;16.00;;
1585;SDS011;786;48.718;9.514;2023-03-01T14:33:59;18.20;;;12.07;;
1585;SDS011;786;48.718;9.514;2023-03-01T14:36:26;40.03;;;24.85;;
1585;SDS011;786;48.718;9.514;2023-03-01T14:38:54;37.17;;;22.13;;
1585;SDS011;786;48.718;9.514;2023-03-01T14:41:21;47.67;;;30.77;;
1585;SDS011;786;48.718;9.514;2023-03-01T14:43:50;32.85;;;22.02;;
1585;SDS011;786;48.718;9.514;2023-03-01T14:46:18;25.75;;;18.30;;
1585;SDS011;786;48.718;9.514;2023-03-01T14:48:47;21.92;;;16.83;;
1585;SDS011;786;48.718;9.514;2023-03-01T14:51:15;19.02;;;13.70;;
1585;SDS011;786;48.718;9.514;2023-03-01T14:53:41;15.90;;;10.75;;
1585;SDS011;786;48.718;9.514;2023-03-01T14:56:13;22.08;;;14.65;;
1585;SDS011;786;48.718;9.514;2023-03-01T14:58:40;23.77;;;16.33;;
1585;SDS011;786;48.718;9.514;2023-03-01T15:01:07;22.67;;;15.70;;
1585;SDS011;786;48.718;9.514;2023-03-01T15:03:36;20.90;;;14.38;;
1585;SDS011;786;48.718;9.514;2023-03-01T15:06:04;21.00;;;14.57;;
1585;SDS011;786;48.718;9.514;2023-03-01T15:08:32;17.98;;;12.43;;
1585;SDS011;786;48.718;9.514;2023-03-01T15:11:00;19.88;;;13.23;;
1585;SDS011;786;48.718;9.514;2023-03-01T15:13:31;19.10;;;12.77;;
1585;SDS011;786;48.718;9.514;2023-03-01T15:16:02;21.33;;;14.07;;
1585;SDS011;786;48.718;9.514;2023-03-01T15:18:33;17.27;;;13.02;;
1585;SDS011;786;48.718;9.514;2023-03-01T15:21:08;23.58;;;16.15;;
1585;SDS011;786;48.718;9.514;2023-03-01T15:23:39;25.65;;;16.55;;
1585;SDS011;786;48.718;9.514;2023-03-01T15:26:06;24.83;;;17.50;;
1585;SDS011;786;48.718;9.514;2023-03-01T15:28:49;21.75;;;15.25;;
1585;SDS011;786;48.718;9.514;2023-03-01T15:31:18;23.08;;;17.17;;
1585;SDS011;786;48.718;9.514;2023-03-01T15:33:46;26.10;;;18.48;;
1585;SDS011;786;48.718;9.514;2023-03-01T15:36:33;25.05;;;16.33;;
1585;SDS011;786;48.718;9.514;2023-03-01T15:39:03;18.10;;;12.90;;